Accueil
METAR-TAF:

METAR-TAF

Aéroports :

Aéroport international de Gibraltar

Gibraltar, Gibraltar

latitude: 36-09N, longitude: 005-21W, altitude: 5 m

Observation

Le bulletin a été fait il y a 1 heure et 16 minutes, à 16:50 UTC
Vent 16 kt de est
Température 22°C
Humidité 69%
Pression 1018 hPa
Visibilité 10 km ou plus

METAR: LXGB 191650Z AUTO 09016KT 9999 // NCD 22/16 Q1018

Heure: 20:06 (18:06 UTC)

Prévision

Le bulletin a été fait il y a 4 heures et 16 minutes, à 13:50 UTC
Prévision valable du 19 à 15 UTC au 19 à 22 UTC
Vent 14 kt de est
Visibilité 10 km ou plus
Quelques nuages à une hauteur de 1200 ft
Temporairement
du 19 à 15 UTC au 19 à 22 UTC
Vent 16 kt de est avec des rafales jusqu'à 26 kt

TAF: LXGB 191350Z 1915/1922 09014KT 9999 FEW012 TEMPO 1915/1922 10016G26KT

Observations et prévisions météorologiques de plus de 4000 aéroports (messages METAR et TAF).

Les stations disponibles sont représentées par des disques jaunes et rouges sur la carte.

Passer la souris dessus pour voir le nom de la station.

Cliquer dessus pour voir les observations et prévisions météorologiques.

Pour changer de carte: cliquez sur les boutons verts avec une croix noire pour zoomer, sur le bouton vert avec un tiret pour effectuer un zoom arrière, ou sur les flèches vertes pour les cartes adjacentes.


METAR-TAF: